sensor_id;sensor_type;location;lat;lon;timestamp;pressure;altitude;pressure_sealevel;temperature
40045;BMP280;25735;48.122;11.422;2022-11-23T00:02:22;94011.06;;;5.30
40045;BMP280;25735;48.122;11.422;2022-11-23T00:04:47;94004.56;;;5.36
40045;BMP280;25735;48.122;11.422;2022-11-23T00:07:13;94014.31;;;5.33
40045;BMP280;25735;48.122;11.422;2022-11-23T00:09:38;94004.09;;;5.37
40045;BMP280;25735;48.122;11.422;2022-11-23T00:12:03;94019.41;;;5.32
40045;BMP280;25735;48.122;11.422;2022-11-23T00:14:28;94019.22;;;5.35
40045;BMP280;25735;48.122;11.422;2022-11-23T00:16:54;94006.69;;;5.32
40045;BMP280;25735;48.122;11.422;2022-11-23T00:19:19;94015.78;;;5.34
40045;BMP280;25735;48.122;11.422;2022-11-23T00:21:44;94015.53;;;5.32
40045;BMP280;25735;48.122;11.422;2022-11-23T00:24:12;94009.28;;;5.41
40045;BMP280;25735;48.122;11.422;2022-11-23T00:26:38;94014.66;;;5.41
40045;BMP280;25735;48.122;11.422;2022-11-23T00:29:03;94018.09;;;5.41
40045;BMP280;25735;48.122;11.422;2022-11-23T00:31:28;94016.72;;;5.46
40045;BMP280;25735;48.122;11.422;2022-11-23T00:33:54;94014.47;;;5.44
40045;BMP280;25735;48.122;11.422;2022-11-23T00:36:21;94014.13;;;5.37
40045;BMP280;25735;48.122;11.422;2022-11-23T00:38:48;94017.75;;;5.34
40045;BMP280;25735;48.122;11.422;2022-11-23T00:41:19;94005.31;;;5.36
40045;BMP280;25735;48.122;11.422;2022-11-23T00:43:45;94015.25;;;5.31
40045;BMP280;25735;48.122;11.422;2022-11-23T00:46:15;94011.44;;;5.37
40045;BMP280;25735;48.122;11.422;2022-11-23T00:48:46;94009.47;;;5.37
40045;BMP280;25735;48.122;11.422;2022-11-23T00:51:16;93997.41;;;5.33
40045;BMP280;25735;48.122;11.422;2022-11-23T00:53:43;94013.78;;;5.30
40045;BMP280;25735;48.122;11.422;2022-11-23T00:56:08;93999.28;;;5.27
40045;BMP280;25735;48.122;11.422;2022-11-23T00:58:34;93998.34;;;5.30
40045;BMP280;25735;48.122;11.422;2022-11-23T01:03:32;94012.47;;;5.25
40045;BMP280;25735;48.122;11.422;2022-11-23T01:06:03;94002.16;;;5.24
40045;BMP280;25735;48.122;11.422;2022-11-23T01:08:28;94015.00;;;5.14
40045;BMP280;25735;48.122;11.422;2022-11-23T01:10:58;94013.78;;;5.15
40045;BMP280;25735;48.122;11.422;2022-11-23T01:13:23;94009.44;;;5.04
40045;BMP280;25735;48.122;11.422;2022-11-23T01:15:49;94014.91;;;5.09
40045;BMP280;25735;48.122;11.422;2022-11-23T01:18:14;94013.81;;;5.01
40045;BMP280;25735;48.122;11.422;2022-11-23T01:20:40;94015.28;;;5.02
40045;BMP280;25735;48.122;11.422;2022-11-23T01:23:05;94028.09;;;5.07
40045;BMP280;25735;48.122;11.422;2022-11-23T01:25:30;94015.84;;;5.06
40045;BMP280;25735;48.122;11.422;2022-11-23T01:27:55;94013.44;;;5.08
40045;BMP280;25735;48.122;11.422;2022-11-23T01:30:21;94015.09;;;5.05
40045;BMP280;25735;48.122;11.422;2022-11-23T01:32:46;94020.13;;;4.98
40045;BMP280;25735;48.122;11.422;2022-11-23T01:35:11;94026.91;;;4.79
40045;BMP280;25735;48.122;11.422;2022-11-23T01:37:36;94013.25;;;4.83
40045;BMP280;25735;48.122;11.422;2022-11-23T01:40:02;94023.28;;;4.82
40045;BMP280;25735;48.122;11.422;2022-11-23T01:42:57;94027.94;;;4.82
40045;BMP280;25735;48.122;11.422;2022-11-23T01:45:32;94024.69;;;4.78
40045;BMP280;25735;48.122;11.422;2022-11-23T01:47:57;94034.78;;;4.69
40045;BMP280;25735;48.122;11.422;2022-11-23T01:50:23;94023.75;;;4.67
40045;BMP280;25735;48.122;11.422;2022-11-23T01:52:48;94036.94;;;4.65
40045;BMP280;25735;48.122;11.422;2022-11-23T01:55:14;94040.53;;;4.62
40045;BMP280;25735;48.122;11.422;2022-11-23T01:57:41;94041.56;;;4.64
40045;BMP280;25735;48.122;11.422;2022-11-23T02:00:08;94050.44;;;4.56
40045;BMP280;25735;48.122;11.422;2022-11-23T02:02:34;94051.84;;;4.51
40045;BMP280;25735;48.122;11.422;2022-11-23T02:05:01;94050.16;;;4.54
40045;BMP280;25735;48.122;11.422;2022-11-23T02:07:27;94046.28;;;4.55
40045;BMP280;25735;48.122;11.422;2022-11-23T02:09:53;94048.69;;;4.39
40045;BMP280;25735;48.122;11.422;2022-11-23T02:12:18;94055.66;;;4.45
40045;BMP280;25735;48.122;11.422;2022-11-23T02:14:44;94046.91;;;4.50
40045;BMP280;25735;48.122;11.422;2022-11-23T02:17:10;94045.16;;;4.47
40045;BMP280;25735;48.122;11.422;2022-11-23T02:19:53;94043.66;;;4.46
40045;BMP280;25735;48.122;11.422;2022-11-23T02:22:28;94045.16;;;4.47
40045;BMP280;25735;48.122;11.422;2022-11-23T02:24:55;94051.25;;;4.47
40045;BMP280;25735;48.122;11.422;2022-11-23T02:27:21;94047.22;;;4.52
40045;BMP280;25735;48.122;11.422;2022-11-23T02:29:47;94044.41;;;4.47
40045;BMP280;25735;48.122;11.422;2022-11-23T02:32:20;94047.66;;;4.50
40045;BMP280;25735;48.122;11.422;2022-11-23T02:34:48;94044.88;;;4.45
40045;BMP280;25735;48.122;11.422;2022-11-23T02:37:13;94043.84;;;4.43
40045;BMP280;25735;48.122;11.422;2022-11-23T02:39:57;94036.41;;;4.38
40045;BMP280;25735;48.122;11.422;2022-11-23T02:42:24;94037.63;;;4.37
40045;BMP280;25735;48.122;11.422;2022-11-23T02:47:20;94037.25;;;4.29
40045;BMP280;25735;48.122;11.422;2022-11-23T02:49:47;94038.53;;;4.34
40045;BMP280;25735;48.122;11.422;2022-11-23T02:52:13;94032.91;;;4.32
40045;BMP280;25735;48.122;11.422;2022-11-23T02:54:38;94031.41;;;4.31
40045;BMP280;25735;48.122;11.422;2022-11-23T02:57:04;94026.19;;;4.27
40045;BMP280;25735;48.122;11.422;2022-11-23T02:59:30;94035.09;;;4.19
40045;BMP280;25735;48.122;11.422;2022-11-23T03:01:57;94031.94;;;4.20
40045;BMP280;25735;48.122;11.422;2022-11-23T03:04:22;94034.06;;;4.17
40045;BMP280;25735;48.122;11.422;2022-11-23T03:06:48;94034.44;;;4.10
40045;BMP280;25735;48.122;11.422;2022-11-23T03:09:13;94033.88;;;4.06
40045;BMP280;25735;48.122;11.422;2022-11-23T03:11:38;94044.31;;;4.04
40045;BMP280;25735;48.122;11.422;2022-11-23T03:14:04;94044.19;;;3.98
40045;BMP280;25735;48.122;11.422;2022-11-23T03:16:29;94033.94;;;3.97
40045;BMP280;25735;48.122;11.422;2022-11-23T03:18:55;94043.19;;;3.96
40045;BMP280;25735;48.122;11.422;2022-11-23T03:21:20;94042.84;;;4.03
40045;BMP280;25735;48.122;11.422;2022-11-23T03:23:45;94041.34;;;4.02
40045;BMP280;25735;48.122;11.422;2022-11-23T03:26:10;94047.75;;;4.04
40045;BMP280;25735;48.122;11.422;2022-11-23T03:28:36;94046.09;;;4.07
40045;BMP280;25735;48.122;11.422;2022-11-23T03:31:01;94044.50;;;4.00
40045;BMP280;25735;48.122;11.422;2022-11-23T03:33:26;94040.50;;;3.96
40045;BMP280;25735;48.122;11.422;2022-11-23T03:35:51;94056.94;;;3.89
40045;BMP280;25735;48.122;11.422;2022-11-23T03:38:17;94052.50;;;3.86
40045;BMP280;25735;48.122;11.422;2022-11-23T03:40:45;94045.03;;;3.90
40045;BMP280;25735;48.122;11.422;2022-11-23T03:43:11;94044.00;;;3.88
40045;BMP280;25735;48.122;11.422;2022-11-23T03:45:36;94039.66;;;3.90
40045;BMP280;25735;48.122;11.422;2022-11-23T03:48:02;94041.75;;;3.86
40045;BMP280;25735;48.122;11.422;2022-11-23T03:50:27;94040.56;;;3.87
40045;BMP280;25735;48.122;11.422;2022-11-23T03:52:54;94032.69;;;3.84
40045;BMP280;25735;48.122;11.422;2022-11-23T03:55:19;94035.38;;;3.84
40045;BMP280;25735;48.122;11.422;2022-11-23T03:57:46;94028.78;;;3.85
40045;BMP280;25735;48.122;11.422;2022-11-23T04:00:12;94026.63;;;3.74
40045;BMP280;25735;48.122;11.422;2022-11-23T04:02:39;94032.34;;;3.67
40045;BMP280;25735;48.122;11.422;2022-11-23T04:05:05;94031.78;;;3.64
40045;BMP280;25735;48.122;11.422;2022-11-23T04:07:30;94034.31;;;3.58
40045;BMP280;25735;48.122;11.422;2022-11-23T04:09:55;94036.28;;;3.58
40045;BMP280;25735;48.122;11.422;2022-11-23T04:12:21;94033.13;;;3.59
40045;BMP280;25735;48.122;11.422;2022-11-23T04:14:46;94035.06;;;3.59
40045;BMP280;25735;48.122;11.422;2022-11-23T04:17:11;94023.41;;;3.62
40045;BMP280;25735;48.122;11.422;2022-11-23T04:19:36;94026.41;;;3.64
40045;BMP280;25735;48.122;11.422;2022-11-23T04:22:02;94041.56;;;3.66
40045;BMP280;25735;48.122;11.422;2022-11-23T04:24:27;94037.13;;;3.64
40045;BMP280;25735;48.122;11.422;2022-11-23T04:26:52;94030.56;;;3.64
40045;BMP280;25735;48.122;11.422;2022-11-23T04:29:17;94033.63;;;3.72
40045;BMP280;25735;48.122;11.422;2022-11-23T04:31:43;94030.91;;;3.81
40045;BMP280;25735;48.122;11.422;2022-11-23T04:34:08;94030.00;;;3.84
40045;BMP280;25735;48.122;11.422;2022-11-23T04:36:33;94024.25;;;3.91
40045;BMP280;25735;48.122;11.422;2022-11-23T04:38:59;94032.94;;;3.86
40045;BMP280;25735;48.122;11.422;2022-11-23T04:41:24;94028.44;;;3.92
40045;BMP280;25735;48.122;11.422;2022-11-23T04:43:49;94035.94;;;3.88
40045;BMP280;25735;48.122;11.422;2022-11-23T04:46:16;94027.41;;;3.89
40045;BMP280;25735;48.122;11.422;2022-11-23T04:48:42;94028.91;;;3.90
40045;BMP280;25735;48.122;11.422;2022-11-23T04:51:07;94030.94;;;3.95
40045;BMP280;25735;48.122;11.422;2022-11-23T04:53:32;94024.38;;;3.96
40045;BMP280;25735;48.122;11.422;2022-11-23T04:55:57;94025.50;;;4.04
40045;BMP280;25735;48.122;11.422;2022-11-23T04:58:23;94029.31;;;4.12
40045;BMP280;25735;48.122;11.422;2022-11-23T05:00:48;94028.56;;;4.11
40045;BMP280;25735;48.122;11.422;2022-11-23T05:03:13;94022.16;;;4.09
40045;BMP280;25735;48.122;11.422;2022-11-23T05:05:39;94016.16;;;4.14
40045;BMP280;25735;48.122;11.422;2022-11-23T05:08:05;94012.56;;;4.17
40045;BMP280;25735;48.122;11.422;2022-11-23T05:10:31;94012.56;;;4.17
40045;BMP280;25735;48.122;11.422;2022-11-23T05:12:57;94015.38;;;4.22
40045;BMP280;25735;48.122;11.422;2022-11-23T05:15:22;94014.88;;;4.23
40045;BMP280;25735;48.122;11.422;2022-11-23T05:17:47;94014.25;;;4.28
40045;BMP280;25735;48.122;11.422;2022-11-23T05:20:13;94013.59;;;4.33
40045;BMP280;25735;48.122;11.422;2022-11-23T05:22:38;94008.22;;;4.33
40045;BMP280;25735;48.122;11.422;2022-11-23T05:25:04;94010.38;;;4.44
40045;BMP280;25735;48.122;11.422;2022-11-23T05:27:29;94013.97;;;4.41
40045;BMP280;25735;48.122;11.422;2022-11-23T05:29:54;94011.03;;;4.39
40045;BMP280;25735;48.122;11.422;2022-11-23T05:32:20;94008.41;;;4.44
40045;BMP280;25735;48.122;11.422;2022-11-23T05:34:45;94000.09;;;4.42
40045;BMP280;25735;48.122;11.422;2022-11-23T05:37:10;94009.72;;;4.34
40045;BMP280;25735;48.122;11.422;2022-11-23T05:39:35;94007.94;;;4.31
40045;BMP280;25735;48.122;11.422;2022-11-23T05:42:01;94005.78;;;4.21
40045;BMP280;25735;48.122;11.422;2022-11-23T05:44:26;94004.69;;;4.27
40045;BMP280;25735;48.122;11.422;2022-11-23T05:46:51;94008.66;;;4.18
40045;BMP280;25735;48.122;11.422;2022-11-23T05:49:17;94011.34;;;4.03
40045;BMP280;25735;48.122;11.422;2022-11-23T05:51:42;94001.06;;;4.16
40045;BMP280;25735;48.122;11.422;2022-11-23T05:54:07;93999.38;;;4.19
40045;BMP280;25735;48.122;11.422;2022-11-23T05:56:32;94012.28;;;4.15
40045;BMP280;25735;48.122;11.422;2022-11-23T05:58:57;94011.66;;;4.20
40045;BMP280;25735;48.122;11.422;2022-11-23T06:01:23;94009.53;;;4.23
40045;BMP280;25735;48.122;11.422;2022-11-23T06:03:50;94008.03;;;4.22
40045;BMP280;25735;48.122;11.422;2022-11-23T06:06:15;94007.94;;;4.17
40045;BMP280;25735;48.122;11.422;2022-11-23T06:08:40;94015.44;;;4.27
40045;BMP280;25735;48.122;11.422;2022-11-23T06:11:06;94004.13;;;4.23
40045;BMP280;25735;48.122;11.422;2022-11-23T06:13:31;94005.25;;;4.31
40045;BMP280;25735;48.122;11.422;2022-11-23T06:15:57;94006.34;;;4.11
40045;BMP280;25735;48.122;11.422;2022-11-23T06:18:22;94000.25;;;4.24
40045;BMP280;25735;48.122;11.422;2022-11-23T06:20:47;94006.34;;;4.25
40045;BMP280;25735;48.122;11.422;2022-11-23T06:23:13;94008.59;;;4.26
40045;BMP280;25735;48.122;11.422;2022-11-23T06:25:38;93993.56;;;4.20
40045;BMP280;25735;48.122;11.422;2022-11-23T06:28:04;93995.34;;;4.23
40045;BMP280;25735;48.122;11.422;2022-11-23T06:30:29;94002.84;;;4.33
40045;BMP280;25735;48.122;11.422;2022-11-23T06:32:55;93996.84;;;4.38
40045;BMP280;25735;48.122;11.422;2022-11-23T06:35:21;94001.56;;;4.43
40045;BMP280;25735;48.122;11.422;2022-11-23T06:37:48;94004.25;;;4.43
40045;BMP280;25735;48.122;11.422;2022-11-23T06:40:13;94009.94;;;4.45
40045;BMP280;25735;48.122;11.422;2022-11-23T06:42:39;94003.44;;;4.51
40045;BMP280;25735;48.122;11.422;2022-11-23T06:45:04;94008.97;;;4.34
40045;BMP280;25735;48.122;11.422;2022-11-23T06:47:30;94016.00;;;4.31
40045;BMP280;25735;48.122;11.422;2022-11-23T06:49:55;94013.13;;;4.35
40045;BMP280;25735;48.122;11.422;2022-11-23T06:52:20;94025.22;;;4.39
40045;BMP280;25735;48.122;11.422;2022-11-23T06:54:46;94015.38;;;4.36
40045;BMP280;25735;48.122;11.422;2022-11-23T06:57:11;94015.66;;;4.38
40045;BMP280;25735;48.122;11.422;2022-11-23T06:59:37;94015.97;;;4.54
40045;BMP280;25735;48.122;11.422;2022-11-23T07:02:02;94022.16;;;4.46
40045;BMP280;25735;48.122;11.422;2022-11-23T07:04:27;94022.22;;;4.37
40045;BMP280;25735;48.122;11.422;2022-11-23T07:06:52;94034.88;;;4.46
40045;BMP280;25735;48.122;11.422;2022-11-23T07:09:18;94021.59;;;4.42
40045;BMP280;25735;48.122;11.422;2022-11-23T07:11:43;94029.56;;;4.51
40045;BMP280;25735;48.122;11.422;2022-11-23T07:14:08;94043.13;;;4.56
40045;BMP280;25735;48.122;11.422;2022-11-23T07:16:34;94037.38;;;4.49
40045;BMP280;25735;48.122;11.422;2022-11-23T07:18:59;94034.41;;;4.47
40045;BMP280;25735;48.122;11.422;2022-11-23T07:21:24;94049.06;;;4.60
40045;BMP280;25735;48.122;11.422;2022-11-23T07:23:50;94043.13;;;4.56
40045;BMP280;25735;48.122;11.422;2022-11-23T07:26:15;94050.00;;;4.72
40045;BMP280;25735;48.122;11.422;2022-11-23T07:28:40;94049.53;;;4.59
40045;BMP280;25735;48.122;11.422;2022-11-23T07:31:06;94060.84;;;4.77
40045;BMP280;25735;48.122;11.422;2022-11-23T07:33:31;94065.00;;;4.64
40045;BMP280;25735;48.122;11.422;2022-11-23T07:35:59;94067.53;;;4.67
40045;BMP280;25735;48.122;11.422;2022-11-23T07:38:25;94063.81;;;4.93
40045;BMP280;25735;48.122;11.422;2022-11-23T07:40:50;94055.22;;;5.04
40045;BMP280;25735;48.122;11.422;2022-11-23T07:43:16;94063.47;;;5.00
40045;BMP280;25735;48.122;11.422;2022-11-23T07:45:41;94066.50;;;4.93
40045;BMP280;25735;48.122;11.422;2022-11-23T07:48:07;94062.06;;;5.04
40045;BMP280;25735;48.122;11.422;2022-11-23T07:50:34;94068.09;;;5.14
40045;BMP280;25735;48.122;11.422;2022-11-23T07:53:04;94063.34;;;5.09
40045;BMP280;25735;48.122;11.422;2022-11-23T07:55:30;94070.25;;;5.10
40045;BMP280;25735;48.122;11.422;2022-11-23T07:57:56;94071.16;;;5.07
40045;BMP280;25735;48.122;11.422;2022-11-23T08:00:22;94082.56;;;5.02
40045;BMP280;25735;48.122;11.422;2022-11-23T08:02:48;94074.69;;;4.99
40045;BMP280;25735;48.122;11.422;2022-11-23T08:05:14;94076.56;;;5.07
40045;BMP280;25735;48.122;11.422;2022-11-23T08:07:40;94069.31;;;5.13
40045;BMP280;25735;48.122;11.422;2022-11-23T08:10:05;94080.25;;;5.09
40045;BMP280;25735;48.122;11.422;2022-11-23T08:12:31;94084.53;;;5.16
40045;BMP280;25735;48.122;11.422;2022-11-23T08:14:56;94092.03;;;5.12
40045;BMP280;25735;48.122;11.422;2022-11-23T08:17:22;94079.91;;;5.16
40045;BMP280;25735;48.122;11.422;2022-11-23T08:19:47;94089.38;;;5.26
40045;BMP280;25735;48.122;11.422;2022-11-23T08:22:12;94084.91;;;5.09
40045;BMP280;25735;48.122;11.422;2022-11-23T08:24:38;94096.97;;;5.28
40045;BMP280;25735;48.122;11.422;2022-11-23T08:27:03;94092.66;;;5.35
40045;BMP280;25735;48.122;11.422;2022-11-23T08:29:29;94088.69;;;5.45
40045;BMP280;25735;48.122;11.422;2022-11-23T08:31:54;94092.06;;;5.26
40045;BMP280;25735;48.122;11.422;2022-11-23T08:34:19;94085.81;;;5.34
40045;BMP280;25735;48.122;11.422;2022-11-23T08:36:45;94081.34;;;5.46
40045;BMP280;25735;48.122;11.422;2022-11-23T08:39:10;94088.50;;;5.34
40045;BMP280;25735;48.122;11.422;2022-11-23T08:41:36;94083.56;;;5.47
40045;BMP280;25735;48.122;11.422;2022-11-23T08:44:03;94091.53;;;5.56
40045;BMP280;25735;48.122;11.422;2022-11-23T08:46:28;94096.00;;;5.59
40045;BMP280;25735;48.122;11.422;2022-11-23T08:48:53;94087.91;;;5.59
40045;BMP280;25735;48.122;11.422;2022-11-23T08:51:18;94091.69;;;5.67
40045;BMP280;25735;48.122;11.422;2022-11-23T08:53:50;94085.47;;;5.61
40045;BMP280;25735;48.122;11.422;2022-11-23T08:56:15;94094.88;;;5.65
40045;BMP280;25735;48.122;11.422;2022-11-23T08:58:41;94095.41;;;5.69
40045;BMP280;25735;48.122;11.422;2022-11-23T09:01:10;94084.22;;;5.90
40045;BMP280;25735;48.122;11.422;2022-11-23T09:03:36;94089.06;;;5.87
40045;BMP280;25735;48.122;11.422;2022-11-23T09:06:01;94087.09;;;6.01
40045;BMP280;25735;48.122;11.422;2022-11-23T09:08:27;94091.66;;;5.95
40045;BMP280;25735;48.122;11.422;2022-11-23T09:10:52;94077.88;;;5.93
40045;BMP280;25735;48.122;11.422;2022-11-23T09:13:17;94077.16;;;5.93
40045;BMP280;25735;48.122;11.422;2022-11-23T09:15:43;94076.56;;;6.03
40045;BMP280;25735;48.122;11.422;2022-11-23T09:18:08;94077.03;;;6.21
40045;BMP280;25735;48.122;11.422;2022-11-23T09:20:34;94071.72;;;6.46
40045;BMP280;25735;48.122;11.422;2022-11-23T09:22:59;94073.59;;;6.85
40045;BMP280;25735;48.122;11.422;2022-11-23T09:25:25;94067.13;;;6.77
40045;BMP280;25735;48.122;11.422;2022-11-23T09:27:56;94075.47;;;7.29
40045;BMP280;25735;48.122;11.422;2022-11-23T09:30:22;94069.25;;;7.49
40045;BMP280;25735;48.122;11.422;2022-11-23T09:32:47;94073.41;;;7.80
40045;BMP280;25735;48.122;11.422;2022-11-23T09:35:13;94061.56;;;8.08
40045;BMP280;25735;48.122;11.422;2022-11-23T09:37:38;94065.25;;;8.11
40045;BMP280;25735;48.122;11.422;2022-11-23T09:40:04;94075.72;;;7.62
40045;BMP280;25735;48.122;11.422;2022-11-23T09:43:07;94071.94;;;7.79
40045;BMP280;25735;48.122;11.422;2022-11-23T09:45:49;94072.69;;;7.80
40045;BMP280;25735;48.122;11.422;2022-11-23T09:48:40;94059.34;;;8.07
40045;BMP280;25735;48.122;11.422;2022-11-23T09:51:20;94066.97;;;8.08
40045;BMP280;25735;48.122;11.422;2022-11-23T09:53:48;94061.19;;;8.31
40045;BMP280;25735;48.122;11.422;2022-11-23T09:56:20;94070.63;;;8.52
40045;BMP280;25735;48.122;11.422;2022-11-23T09:58:51;94062.34;;;8.77
40045;BMP280;25735;48.122;11.422;2022-11-23T10:01:17;94060.09;;;8.75
40045;BMP280;25735;48.122;11.422;2022-11-23T10:03:43;94065.09;;;8.93
40045;BMP280;25735;48.122;11.422;2022-11-23T10:06:29;94064.78;;;8.75
40045;BMP280;25735;48.122;11.422;2022-11-23T10:14:34;94059.00;;;9.25
40045;BMP280;25735;48.122;11.422;2022-11-23T10:17:08;94052.09;;;9.46
40045;BMP280;25735;48.122;11.422;2022-11-23T10:19:44;94054.78;;;9.40
40045;BMP280;25735;48.122;11.422;2022-11-23T10:22:21;94045.44;;;9.57
40045;BMP280;25735;48.122;11.422;2022-11-23T10:24:51;94056.97;;;9.04
40045;BMP280;25735;48.122;11.422;2022-11-23T10:27:19;94035.53;;;8.90
40045;BMP280;25735;48.122;11.422;2022-11-23T10:29:45;94030.63;;;9.64
40045;BMP280;25735;48.122;11.422;2022-11-23T10:32:30;94038.03;;;9.69
40045;BMP280;25735;48.122;11.422;2022-11-23T10:35:13;94036.31;;;9.71
40045;BMP280;25735;48.122;11.422;2022-11-23T10:37:39;94028.66;;;9.75
40045;BMP280;25735;48.122;11.422;2022-11-23T10:40:23;94020.47;;;10.02
40045;BMP280;25735;48.122;11.422;2022-11-23T10:42:56;94027.16;;;9.96
40045;BMP280;25735;48.122;11.422;2022-11-23T10:45:24;94025.22;;;9.53
40045;BMP280;25735;48.122;11.422;2022-11-23T10:47:52;94017.09;;;9.42
40045;BMP280;25735;48.122;11.422;2022-11-23T10:58:30;94020.63;;;10.37
40045;BMP280;25735;48.122;11.422;2022-11-23T11:01:00;94014.69;;;10.43
40045;BMP280;25735;48.122;11.422;2022-11-23T11:03:25;94021.28;;;10.53
40045;BMP280;25735;48.122;11.422;2022-11-23T11:05:56;94007.06;;;10.82
40045;BMP280;25735;48.122;11.422;2022-11-23T11:08:26;94012.06;;;11.12
40045;BMP280;25735;48.122;11.422;2022-11-23T11:11:05;94017.97;;;11.16
40045;BMP280;25735;48.122;11.422;2022-11-23T11:13:42;94024.84;;;11.23
40045;BMP280;25735;48.122;11.422;2022-11-23T11:18:44;94008.03;;;11.24
40045;BMP280;25735;48.122;11.422;2022-11-23T11:21:31;94002.50;;;11.35
40045;BMP280;25735;48.122;11.422;2022-11-23T11:24:03;94004.88;;;11.15
40045;BMP280;25735;48.122;11.422;2022-11-23T11:26:33;94008.44;;;9.60
40045;BMP280;25735;48.122;11.422;2022-11-23T11:29:02;94005.53;;;9.36
40045;BMP280;25735;48.122;11.422;2022-11-23T11:36:35;93997.56;;;11.39
40045;BMP280;25735;48.122;11.422;2022-11-23T11:39:07;93992.63;;;11.66
40045;BMP280;25735;48.122;11.422;2022-11-23T11:41:35;93984.31;;;12.48
40045;BMP280;25735;48.122;11.422;2022-11-23T11:44:06;93985.06;;;12.66
40045;BMP280;25735;48.122;11.422;2022-11-23T11:46:37;93983.91;;;12.80
40045;BMP280;25735;48.122;11.422;2022-11-23T11:49:15;93971.75;;;12.81
40045;BMP280;25735;48.122;11.422;2022-11-23T11:51:45;93974.34;;;12.32
40045;BMP280;25735;48.122;11.422;2022-11-23T11:54:29;93975.31;;;12.53
40045;BMP280;25735;48.122;11.422;2022-11-23T11:57:05;93972.13;;;12.91
40045;BMP280;25735;48.122;11.422;2022-11-23T11:59:38;93961.41;;;13.11
40045;BMP280;25735;48.122;11.422;2022-11-23T12:02:26;93976.59;;;14.25
40045;BMP280;25735;48.122;11.422;2022-11-23T12:05:16;93968.28;;;14.17
40045;BMP280;25735;48.122;11.422;2022-11-23T12:08:01;93969.81;;;13.44
40045;BMP280;25735;48.122;11.422;2022-11-23T12:10:27;93970.13;;;13.09
40045;BMP280;25735;48.122;11.422;2022-11-23T12:12:54;93955.03;;;11.65
40045;BMP280;25735;48.122;11.422;2022-11-23T12:15:25;93970.06;;;11.71
40045;BMP280;25735;48.122;11.422;2022-11-23T12:18:16;93947.56;;;14.60
40045;BMP280;25735;48.122;11.422;2022-11-23T12:20:47;93943.53;;;15.80
40045;BMP280;25735;48.122;11.422;2022-11-23T12:23:34;93953.66;;;15.92
40045;BMP280;25735;48.122;11.422;2022-11-23T12:31:46;93947.66;;;15.94
40045;BMP280;25735;48.122;11.422;2022-11-23T12:34:19;93946.25;;;16.00
40045;BMP280;25735;48.122;11.422;2022-11-23T12:37:37;93945.28;;;15.50
40045;BMP280;25735;48.122;11.422;2022-11-23T12:40:16;93942.47;;;16.65
40045;BMP280;25735;48.122;11.422;2022-11-23T12:42:47;93940.22;;;16.02
40045;BMP280;25735;48.122;11.422;2022-11-23T12:45:17;93946.03;;;14.85
40045;BMP280;25735;48.122;11.422;2022-11-23T12:50:32;93950.75;;;12.40
40045;BMP280;25735;48.122;11.422;2022-11-23T12:58:31;93948.88;;;13.51
40045;BMP280;25735;48.122;11.422;2022-11-23T13:01:04;93949.72;;;14.41
40045;BMP280;25735;48.122;11.422;2022-11-23T13:06:58;93940.75;;;17.47
40045;BMP280;25735;48.122;11.422;2022-11-23T13:09:45;93924.78;;;17.31
40045;BMP280;25735;48.122;11.422;2022-11-23T13:12:41;93918.25;;;17.85
40045;BMP280;25735;48.122;11.422;2022-11-23T13:20:29;93922.84;;;16.19
40045;BMP280;25735;48.122;11.422;2022-11-23T13:23:00;93932.22;;;16.66
40045;BMP280;25735;48.122;11.422;2022-11-23T13:25:28;93929.03;;;17.47
40045;BMP280;25735;48.122;11.422;2022-11-23T13:27:56;93933.25;;;17.99
40045;BMP280;25735;48.122;11.422;2022-11-23T13:30:38;93930.19;;;16.59
40045;BMP280;25735;48.122;11.422;2022-11-23T13:40:36;93928.38;;;18.66
40045;BMP280;25735;48.122;11.422;2022-11-23T13:43:23;93906.88;;;18.26
40045;BMP280;25735;48.122;11.422;2022-11-23T13:46:18;93910.66;;;18.52
40045;BMP280;25735;48.122;11.422;2022-11-23T13:48:47;93907.44;;;17.73
40045;BMP280;25735;48.122;11.422;2022-11-23T13:51:22;93918.66;;;14.97
40045;BMP280;25735;48.122;11.422;2022-11-23T13:53:59;93925.34;;;13.05
40045;BMP280;25735;48.122;11.422;2022-11-23T13:56:34;93911.06;;;12.81
40045;BMP280;25735;48.122;11.422;2022-11-23T14:04:39;93926.31;;;10.82
40045;BMP280;25735;48.122;11.422;2022-11-23T14:07:24;93923.72;;;11.00
40045;BMP280;25735;48.122;11.422;2022-11-23T14:09:56;93918.91;;;11.12
40045;BMP280;25735;48.122;11.422;2022-11-23T14:15:28;93915.00;;;11.65
40045;BMP280;25735;48.122;11.422;2022-11-23T14:23:35;93919.59;;;11.76
40045;BMP280;25735;48.122;11.422;2022-11-23T14:26:28;93935.78;;;11.34
40045;BMP280;25735;48.122;11.422;2022-11-23T14:34:35;93945.34;;;10.77
40045;BMP280;25735;48.122;11.422;2022-11-23T14:37:18;93940.56;;;10.54
40045;BMP280;25735;48.122;11.422;2022-11-23T14:40:05;93937.16;;;10.88
40045;BMP280;25735;48.122;11.422;2022-11-23T14:42:40;93939.38;;;10.84
40045;BMP280;25735;48.122;11.422;2022-11-23T14:45:12;93932.22;;;10.46
40045;BMP280;25735;48.122;11.422;2022-11-23T14:47:37;93933.47;;;9.89
40045;BMP280;25735;48.122;11.422;2022-11-23T14:50:03;93930.75;;;9.95
40045;BMP280;25735;48.122;11.422;2022-11-23T14:52:32;93937.41;;;9.88
40045;BMP280;25735;48.122;11.422;2022-11-23T14:55:00;93942.41;;;9.57
40045;BMP280;25735;48.122;11.422;2022-11-23T14:57:28;93946.16;;;9.38
40045;BMP280;25735;48.122;11.422;2022-11-23T14:59:59;93945.63;;;9.34
40045;BMP280;25735;48.122;11.422;2022-11-23T15:02:39;93955.75;;;9.39
40045;BMP280;25735;48.122;11.422;2022-11-23T15:05:11;93948.09;;;9.38
40045;BMP280;25735;48.122;11.422;2022-11-23T15:07:52;93931.75;;;9.76
40045;BMP280;25735;48.122;11.422;2022-11-23T15:10:33;93947.88;;;9.30
40045;BMP280;25735;48.122;11.422;2022-11-23T15:13:01;93943.19;;;8.82
40045;BMP280;25735;48.122;11.422;2022-11-23T15:15:29;93946.84;;;8.47
40045;BMP280;25735;48.122;11.422;2022-11-23T15:18:00;93946.28;;;8.16
40045;BMP280;25735;48.122;11.422;2022-11-23T15:20:32;93938.19;;;8.21
40045;BMP280;25735;48.122;11.422;2022-11-23T15:23:00;93934.69;;;8.10
40045;BMP280;25735;48.122;11.422;2022-11-23T15:25:25;93943.94;;;7.93
40045;BMP280;25735;48.122;11.422;2022-11-23T15:27:51;93936.28;;;7.81
40045;BMP280;25735;48.122;11.422;2022-11-23T15:30:25;93939.63;;;7.59
40045;BMP280;25735;48.122;11.422;2022-11-23T15:35:22;93933.31;;;7.32